Time;durP1;ratioP1;P1;durP2;ratioP2;P2;SDS_P1;SDS_P2;PMS_P1;PMS_P2;Temp;Humidity;BMP_temperature;BMP_pressure;BME280_temperature;BME280_humidity;BME280_pressure;Samples;Min_cycle;Max_cycle;Signal;HPM_P1;HPM_P2
2022/05/23 00:00:29;;;;;;;4.75;2.00;;;;;;;14.54;69.53;100774.75;1041392;28;20164;-79
2022/05/23 00:01:00;;;;;;;5.30;2.08;;;;;;;14.53;70.23;100776.59;1042332;28;20308;-78
2022/05/23 00:01:35;;;;;;;8.82;2.10;;;;;;;14.47;69.36;100780.22;1044744;28;20542;-79
2022/05/23 00:02:08;;;;;;;7.78;2.35;;;;;;;14.33;69.69;100780.78;1044947;28;20052;-79
2022/05/23 00:02:39;;;;;;;6.70;2.13;;;;;;;14.34;70.42;100783.22;1044952;28;20291;-79
2022/05/23 00:03:14;;;;;;;6.80;2.17;;;;;;;14.40;70.40;100794.81;1047554;28;20167;-78
2022/05/23 00:03:47;;;;;;;4.43;1.98;;;;;;;14.39;69.64;100783.28;1049198;28;20298;-79
2022/05/23 00:04:18;;;;;;;2.55;1.90;;;;;;;14.37;70.42;100784.59;1047610;28;20116;-78
2022/05/23 00:04:54;;;;;;;5.15;2.30;;;;;;;14.37;70.59;100782.72;1044563;28;20627;-79
2022/05/23 00:05:25;;;;;;;5.45;2.28;;;;;;;14.43;70.50;100784.47;1042952;28;20379;-79
2022/05/23 00:05:58;;;;;;;3.47;2.00;;;;;;;14.44;69.87;100780.72;1038284;28;20520;-79
2022/05/23 00:06:29;;;;;;;2.13;1.80;;;;;;;14.45;69.86;100776.19;1033545;28;20053;-79
2022/05/23 00:07:02;;;;;;;3.92;2.03;;;;;;;14.48;70.04;100770.31;1032747;28;20042;-79
2022/05/23 00:07:40;;;;;;;8.40;1.90;;;;;;;14.46;70.08;100778.63;1029298;28;20051;-78
2022/05/23 00:08:12;;;;;;;6.35;1.80;;;;;;;14.44;70.23;100777.22;1029594;28;20043;-78
2022/05/23 00:08:44;;;;;;;3.45;1.85;;;;;;;14.42;69.96;100774.78;1029509;28;20043;-79
2022/05/23 00:09:16;;;;;;;10.07;2.30;;;;;;;14.38;70.69;100776.31;1033574;28;20038;-78
2022/05/23 00:09:49;;;;;;;6.30;1.88;;;;;;;14.38;71.27;100770.94;1036417;28;20042;-79
2022/05/23 00:10:21;;;;;;;2.63;1.83;;;;;;;14.36;70.79;100773.06;1034184;28;20523;-78
2022/05/23 00:10:53;;;;;;;6.38;2.28;;;;;;;14.38;71.40;100770.13;1043932;28;20102;-78
2022/05/23 00:11:25;;;;;;;6.10;2.05;;;;;;;14.37;70.56;100776.56;1037774;28;20419;-79
2022/05/23 00:11:56;;;;;;;3.28;1.90;;;;;;;14.38;70.70;100764.78;1033023;28;20412;-78
2022/05/23 00:12:28;;;;;;;5.75;1.98;;;;;;;14.35;70.59;100767.94;1036793;28;20305;-78
2022/05/23 00:13:00;;;;;;;6.47;2.03;;;;;;;14.38;70.68;100762.91;1043122;28;20100;-79
2022/05/23 00:13:34;;;;;;;5.57;2.35;;;;;;;14.36;70.69;100762.34;1034905;28;20644;-78
2022/05/23 00:14:06;;;;;;;5.38;2.20;;;;;;;14.26;71.46;100767.53;1033041;28;20137;-78
2022/05/23 00:14:41;;;;;;;4.72;2.35;;;;;;;14.25;71.94;100765.91;1036349;28;20041;-79
2022/05/23 00:15:13;;;;;;;5.82;1.80;;;;;;;14.25;71.75;100768.59;1033428;28;20561;-79
2022/05/23 00:15:45;;;;;;;5.72;2.20;;;;;;;14.26;71.62;100756.81;1034193;28;20128;-79
2022/05/23 00:16:19;;;;;;;10.10;2.47;;;;;;;14.27;70.79;100747.75;1035008;28;20799;-79
2022/05/23 00:16:51;;;;;;;4.93;2.17;;;;;;;14.29;70.86;100750.97;1033526;28;20114;-79
2022/05/23 00:17:23;;;;;;;9.85;2.75;;;;;;;14.25;71.68;100754.41;1035628;28;20404;-79
2022/05/23 00:17:55;;;;;;;9.98;2.58;;;;;;;14.23;71.84;100751.94;1036303;28;20046;-78
2022/05/23 00:18:26;;;;;;;4.68;2.30;;;;;;;14.23;71.52;100751.94;1036601;28;20133;-78
2022/05/23 00:19:09;;;;;;;4.72;2.40;;;;;;;14.25;71.88;100755.22;1031406;28;20477;-78
2022/05/23 00:19:55;;;;;;;6.75;2.47;;;;;;;14.27;71.59;100747.75;1031245;28;20384;-77
2022/05/23 00:20:58;;;;;;;4.13;2.22;;;;;;;14.25;71.22;100751.72;1028898;28;20795;-78
2022/05/23 00:21:35;;;;;;;7.75;2.35;;;;;;;14.27;70.95;100746.91;1034603;28;20043;-78
2022/05/23 00:22:21;;;;;;;3.83;2.03;;;;;;;14.32;70.59;100737.09;1029926;28;20294;-77
2022/05/23 00:22:53;;;;;;;4.30;1.88;;;;;;;14.31;71.34;100738.16;1032917;28;20045;-77
2022/05/23 00:23:39;;;;;;;5.63;2.20;;;;;;;14.27;71.55;100746.91;1039224;28;20136;-77
2022/05/23 00:24:14;;;;;;;5.65;1.98;;;;;;;14.25;72.13;100741.00;1039855;28;20183;-77
2022/05/23 00:24:46;;;;;;;5.15;2.17;;;;;;;14.14;71.95;100743.50;1040064;28;20037;-78
2022/05/23 00:25:26;;;;;;;6.25;1.92;;;;;;;14.24;71.87;100737.47;1038072;28;20293;-77
2022/05/23 00:25:58;;;;;;;3.58;1.88;;;;;;;14.31;71.18;100740.84;1033882;28;20054;-77
2022/05/23 00:26:35;;;;;;;5.43;2.67;;;;;;;14.20;72.68;100744.38;1033968;28;20305;-78
2022/05/23 00:27:08;;;;;;;6.18;2.42;;;;;;;14.21;72.10;100737.97;1033662;28;20293;-78
2022/05/23 00:27:46;;;;;;;2.88;2.00;;;;;;;14.21;72.34;100744.13;1035479;28;20435;-77
2022/05/23 00:28:21;;;;;;;8.57;2.95;;;;;;;14.22;72.60;100748.44;1042213;28;20112;-77
2022/05/23 00:28:52;;;;;;;9.18;3.15;;;;;;;14.24;71.33;100732.13;1038659;28;20296;-77
2022/05/23 00:29:35;;;;;;;3.67;2.38;;;;;;;14.20;71.97;100736.34;1035572;28;20297;-78
2022/05/23 00:30:19;;;;;;;4.30;2.50;;;;;;;14.09;71.02;100734.56;1035988;28;20049;-78
2022/05/23 00:31:00;;;;;;;7.57;2.72;;;;;;;14.18;71.78;100735.78;1032355;28;20058;-78
2022/05/23 00:35:17;;;;;;;4.50;2.28;;;;;;;14.06;71.77;100724.34;1036434;28;20033;-77
2022/05/23 00:36:12;;;;;;;5.95;2.13;;;;;;;14.11;71.72;100724.41;1031267;28;20333;-77
2022/05/23 00:36:58;;;;;;;3.13;2.10;;;;;;;14.23;71.16;100714.41;1025736;28;20327;-77
2022/05/23 00:37:30;;;;;;;8.63;2.58;;;;;;;14.26;70.78;100716.63;1026084;28;20298;-79
2022/05/23 00:38:11;;;;;;;11.45;3.00;;;;;;;14.17;71.66;100720.75;1028205;28;20305;-77
2022/05/23 00:39:04;;;;;;;3.90;2.15;;;;;;;14.11;73.05;100727.09;1017925;29;20432;-77
2022/05/23 00:43:15;;;;;;;6.75;2.70;;;;;;;14.24;71.53;100708.00;1027792;28;20049;-78
2022/05/23 00:44:04;;;;;;;7.65;2.65;;;;;;;14.25;70.94;100704.31;1024179;29;20050;-79
2022/05/23 00:44:35;;;;;;;4.97;2.20;;;;;;;14.21;71.69;100708.50;1020061;29;20303;-79
2022/05/23 00:45:07;;;;;;;4.60;2.40;;;;;;;14.23;71.58;100701.03;1020777;29;20322;-79
2022/05/23 00:45:47;;;;;;;4.70;2.15;;;;;;;14.20;71.16;100706.88;1020105;29;20039;-79
2022/05/23 00:46:19;;;;;;;3.45;2.20;;;;;;;14.21;71.71;100706.63;1021211;28;20300;-78
2022/05/23 00:46:59;;;;;;;6.18;2.45;;;;;;;14.20;71.53;100704.19;1024567;28;20332;-78
2022/05/23 00:47:34;;;;;;;6.88;2.72;;;;;;;14.21;70.32;100695.09;1021330;29;20306;-78
2022/05/23 00:48:07;;;;;;;3.25;2.30;;;;;;;14.15;71.60;100709.47;1022237;29;20048;-78
2022/05/23 00:48:38;;;;;;;5.40;2.13;;;;;;;14.20;70.78;100709.56;1022174;29;20337;-79
2022/05/23 00:49:11;;;;;;;5.50;2.00;;;;;;;14.22;71.01;100704.75;1024052;29;20800;-79
2022/05/23 00:49:43;;;;;;;8.02;2.50;;;;;;;14.24;70.83;100694.59;1021622;29;20857;-79
2022/05/23 00:50:17;;;;;;;3.35;2.13;;;;;;;14.20;70.89;100699.66;1020383;28;20311;-78
2022/05/23 00:50:53;;;;;;;8.07;2.30;;;;;;;14.20;70.96;100705.00;1023801;29;20039;-79
2022/05/23 00:51:25;;;;;;;6.13;2.72;;;;;;;14.20;71.02;100693.47;1024076;29;20689;-78
2022/05/23 00:51:59;;;;;;;5.72;1.85;;;;;;;14.21;70.85;100705.81;1027550;28;20449;-78
2022/05/23 00:52:36;;;;;;;5.53;2.60;;;;;;;14.19;71.36;100691.84;1023129;29;20719;-78
2022/05/23 00:53:08;;;;;;;8.13;2.10;;;;;;;14.17;71.23;100700.13;1019968;29;20046;-79
2022/05/23 00:53:52;;;;;;;7.38;2.05;;;;;;;14.02;71.50;100704.44;1019927;29;20307;-79
2022/05/23 00:54:24;;;;;;;6.10;1.80;;;;;;;14.16;71.43;100703.88;1016342;29;20806;-80
2022/05/23 00:54:58;;;;;;;6.15;2.05;;;;;;;14.11;71.45;100700.31;1017037;29;20534;-80
2022/05/23 00:59:26;;;;;;;4.45;2.08;;;;;;;14.14;70.86;100689.09;1024983;29;20037;-79
2022/05/23 01:00:18;;;;;;;4.82;2.03;;;;;;;14.03;72.42;100692.69;1026440;28;20322;-78
2022/05/23 01:00:59;;;;;;;4.95;2.63;;;;;;;14.10;72.43;100687.97;1021135;29;20062;-78
2022/05/23 01:01:38;;;;;;;4.07;2.67;;;;;;;14.06;71.93;100689.50;1022340;29;20529;-77
2022/05/23 01:02:54;;;;;;;6.18;2.55;;;;;;;14.13;71.49;100680.25;1016199;29;20312;-78
2022/05/23 01:03:27;;;;;;;7.65;2.00;;;;;;;14.13;71.19;100677.56;1017621;29;20647;-78
2022/05/23 01:04:13;;;;;;;6.47;2.20;;;;;;;14.16;71.54;100676.28;1023525;28;20307;-77
2022/05/23 01:05:09;;;;;;;4.75;1.92;;;;;;;14.10;72.03;100671.91;1019940;29;20856;-77
2022/05/23 01:06:29;;;;;;;6.20;2.28;;;;;;;14.07;71.94;100667.03;1012288;29;20308;-77
2022/05/23 01:07:43;;;;;;;9.95;3.67;;;;;;;14.04;71.97;100657.63;1025387;28;20689;-79
2022/05/23 01:08:16;;;;;;;6.30;2.55;;;;;;;14.09;71.96;100654.22;1022234;29;20307;-79
2022/05/23 01:09:38;;;;;;;7.05;2.47;;;;;;;14.02;72.03;100650.88;1019808;29;20322;-77
2022/05/23 01:10:38;;;;;;;;;;;;;;;;;;;;;
2022/05/23 01:11:42;;;;;;;5.07;2.30;;;;;;;14.03;72.36;100652.50;1012212;29;20297;-76
2022/05/23 01:12:29;;;;;;;5.88;2.45;;;;;;;14.00;72.35;100650.31;1022533;28;20294;-77
2022/05/23 01:13:36;;;;;;;3.70;2.05;;;;;;;13.97;72.65;100656.13;1030464;28;20293;-77
2022/05/23 01:15:18;;;;;;;4.28;2.25;;;;;;;13.95;72.72;100642.19;1015823;28;20049;-77
2022/05/23 01:16:01;;;;;;;2.00;1.77;;;;;;;13.92;72.74;100646.16;1026366;28;20313;-78
2022/05/23 01:16:45;;;;;;;4.80;1.75;;;;;;;13.95;72.32;100642.19;1021761;28;20698;-77
2022/05/23 01:17:18;;;;;;;4.60;2.35;;;;;;;13.88;72.28;100632.44;1023510;29;20058;-77
2022/05/23 01:17:56;;;;;;;6.18;2.92;;;;;;;13.92;72.06;100630.09;1030183;28;20312;-77
2022/05/23 01:18:27;;;;;;;7.93;2.78;;;;;;;13.89;72.44;100633.25;1032720;28;20316;-78
2022/05/23 01:18:59;;;;;;;10.15;3.33;;;;;;;13.89;72.94;100630.56;1035423;28;20316;-79
2022/05/23 01:19:31;;;;;;;6.03;2.58;;;;;;;13.85;72.90;100637.47;1038955;28;20077;-77
2022/05/23 01:20:54;;;;;;;6.38;2.38;;;;;;;13.87;73.28;100635.38;1038700;28;20345;-78
2022/05/23 01:21:37;;;;;;;8.30;2.33;;;;;;;13.89;72.58;100638.63;1033528;28;20855;-79
2022/05/23 01:22:18;;;;;;;3.60;2.03;;;;;;;13.76;73.81;100634.41;1036275;28;20314;-78
2022/05/23 01:23:17;;;;;;;5.28;3.05;;;;;;;13.84;73.06;100625.97;1030703;28;20352;-78
2022/05/23 01:24:12;;;;;;;7.05;2.40;;;;;;;13.83;73.11;100640.41;1031357;28;20309;-79
2022/05/23 01:25:01;;;;;;;8.05;2.20;;;;;;;13.86;73.75;100631.88;1035561;28;20305;-79
2022/05/23 01:25:41;;;;;;;4.65;2.60;;;;;;;13.89;73.24;100628.72;1036557;28;20316;-79
2022/05/23 01:26:16;;;;;;;4.68;2.53;;;;;;;13.85;73.17;100632.94;1038074;28;20300;-79
2022/05/23 01:26:53;;;;;;;3.65;2.63;;;;;;;13.84;73.07;100625.16;1044266;28;20306;-79
2022/05/23 01:27:47;;;;;;;5.88;2.40;;;;;;;13.87;72.88;100622.78;1044113;28;20341;-78
2022/05/23 01:28:19;;;;;;;7.13;2.80;;;;;;;13.78;73.84;100632.28;1039638;28;20296;-79
2022/05/23 01:28:51;;;;;;;9.82;2.70;;;;;;;13.81;73.59;100621.09;1039841;28;20307;-79
2022/05/23 01:29:44;;;;;;;7.70;2.72;;;;;;;13.77;73.20;100619.16;1040085;28;20107;-77
2022/05/23 01:30:18;;;;;;;4.78;2.83;;;;;;;13.79;73.21;100622.38;1041803;28;20315;-77
2022/05/23 01:31:11;;;;;;;4.78;2.50;;;;;;;13.82;72.90;100622.72;1040269;28;20304;-77
2022/05/23 01:31:47;;;;;;;3.60;2.60;;;;;;;13.81;72.59;100615.75;1032008;28;20333;-77
2022/05/23 01:32:30;;;;;;;5.10;2.80;;;;;;;13.79;73.23;100620.53;1036980;28;20508;-77
2022/05/23 01:33:03;;;;;;;3.45;2.42;;;;;;;13.80;73.29;100615.97;1036158;28;20790;-77
2022/05/23 01:33:41;;;;;;;6.15;3.20;;;;;;;13.73;73.39;100613.47;1030032;28;20305;-78
2022/05/23 01:34:19;;;;;;;;;;;;;;;13.81;72.91;100621.09;1032653;28;20661;-77
2022/05/23 01:35:05;;;;;;;4.93;2.42;;;;;;;13.73;73.82;100621.50;1036644;28;19921;-77
2022/05/23 01:35:41;;;;;;;6.03;2.45;;;;;;;13.78;73.67;100613.53;1037330;28;20351;-77
2022/05/23 01:36:15;;;;;;;4.68;2.70;;;;;;;13.73;73.51;100618.81;1028032;28;20889;-78
2022/05/23 01:37:16;;;;;;;6.85;2.88;;;;;;;13.72;73.36;100614.53;1029634;28;20302;-77
2022/05/23 01:38:34;;;;;;;;;;;;;;;;;;;;;
2022/05/23 01:40:20;;;;;;;;;;;;;;;;;;;;;
2022/05/23 01:41:14;;;;;;;7.38;2.92;;;;;;;13.74;73.96;100615.09;1025080;28;20335;-79
2022/05/23 01:41:53;;;;;;;8.57;2.50;;;;;;;13.70;73.91;100624.66;1036014;28;20312;-79
2022/05/23 01:42:33;;;;;;;6.32;2.40;;;;;;;13.68;74.39;100624.06;1031916;28;20309;-79
2022/05/23 01:43:05;;;;;;;6.90;2.30;;;;;;;13.69;75.02;100627.56;1031591;28;20306;-79
2022/05/23 01:43:44;;;;;;;5.15;2.60;;;;;;;13.70;74.61;100623.84;1031693;28;20514;-79
2022/05/23 01:44:32;;;;;;;5.47;2.63;;;;;;;13.75;74.17;100627.41;1033209;28;20054;-78
2022/05/23 01:45:54;;;;;;;7.60;2.90;;;;;;;13.74;73.97;100633.84;1044082;28;20357;-79
2022/05/23 01:46:51;;;;;;;7.85;2.47;;;;;;;13.78;74.40;100618.09;1046685;28;20376;-79
2022/05/23 01:47:30;;;;;;;9.75;2.88;;;;;;;13.78;74.00;100632.28;1044332;28;20805;-78
2022/05/23 01:48:06;;;;;;;6.93;2.47;;;;;;;13.76;73.89;100629.03;1047370;28;20294;-79
2022/05/23 01:48:38;;;;;;;4.38;2.30;;;;;;;13.80;74.05;100627.50;1037854;28;20821;-79
2022/05/23 01:49:10;;;;;;;5.45;2.58;;;;;;;13.72;74.02;100629.78;1035850;28;20312;-79
2022/05/23 01:49:42;;;;;;;7.05;2.60;;;;;;;13.74;73.91;100633.03;1040095;28;20390;-79
2022/05/23 01:50:30;;;;;;;6.20;2.58;;;;;;;13.81;73.88;100637.16;1036271;28;20741;-78
2022/05/23 01:51:08;;;;;;;7.15;2.60;;;;;;;13.82;73.88;100628.06;1036811;28;20050;-79
2022/05/23 01:51:39;;;;;;;6.40;2.95;;;;;;;13.81;73.63;100626.44;1043768;28;20465;-78
2022/05/23 01:52:12;;;;;;;6.20;2.55;;;;;;;13.85;73.80;100629.44;1032923;28;20815;-79
2022/05/23 01:52:44;;;;;;;10.88;3.55;;;;;;;13.81;73.36;100620.28;1033742;28;20355;-78
2022/05/23 01:53:20;;;;;;;6.65;2.70;;;;;;;13.82;74.00;100619.22;1038624;28;20305;-78
2022/05/23 01:54:03;;;;;;;7.72;3.17;;;;;;;13.84;73.74;100628.63;1038280;28;20304;-78
2022/05/23 01:54:37;;;;;;;8.02;2.50;;;;;;;13.72;73.30;100635.94;1033380;28;20406;-79
2022/05/23 01:55:09;;;;;;;5.35;2.78;;;;;;;13.77;74.38;100629.84;1034690;28;20316;-78
2022/05/23 01:55:43;;;;;;;7.38;2.70;;;;;;;13.71;74.13;100636.19;1037184;28;20342;-79
2022/05/23 01:56:27;;;;;;;7.95;3.20;;;;;;;13.76;73.83;100634.41;1038787;28;20391;-79
2022/05/23 01:57:34;;;;;;;2.72;2.03;;;;;;;13.67;74.13;100629.66;1031642;28;20298;-78
2022/05/23 02:01:12;;;;;;;5.70;2.45;;;;;;;13.69;74.59;100633.72;1037313;28;20307;-78
2022/05/23 02:01:38;;;;;;;7.65;2.63;;;;;;;13.51;75.20;100628.59;1043260;28;20041;-78
2022/05/23 02:02:21;;;;;;;6.22;2.53;;;;;;;13.54;74.07;100622.75;1036254;28;20313;-78
2022/05/23 02:03:00;;;;;;;8.75;2.53;;;;;;;13.54;74.84;100626.25;1036349;28;20761;-78
2022/05/23 02:03:35;;;;;;;4.15;2.33;;;;;;;13.61;74.46;100621.56;1035487;28;20306;-78
2022/05/23 02:04:10;;;;;;;4.78;2.25;;;;;;;13.59;74.81;100622.84;1034613;28;20931;-78
2022/05/23 02:04:54;;;;;;;7.82;2.38;;;;;;;13.65;74.73;100627.22;1035538;28;20354;-78
2022/05/23 02:05:35;;;;;;;5.57;2.55;;;;;;;13.69;74.42;100619.53;1041898;28;20430;-78
2022/05/23 02:06:16;;;;;;;7.25;2.83;;;;;;;13.56;74.67;100617.97;1039636;28;20336;-78
2022/05/23 02:07:09;;;;;;;8.27;2.80;;;;;;;13.56;75.44;100624.16;1041949;28;20303;-78
2022/05/23 02:07:52;;;;;;;6.55;2.80;;;;;;;13.68;73.94;100623.25;1033018;28;20388;-78
2022/05/23 02:08:24;;;;;;;8.98;2.63;;;;;;;13.57;74.86;100619.59;1031076;28;20368;-78
2022/05/23 02:08:57;;;;;;;7.00;2.33;;;;;;;13.61;74.15;100620.75;1035826;28;20706;-78
2022/05/23 02:09:38;;;;;;;9.70;2.22;;;;;;;13.67;74.64;100619.75;1036375;28;20300;-78
2022/05/23 02:10:30;;;;;;;3.40;2.50;;;;;;;13.57;73.90;100619.59;1033218;28;20502;-78
2022/05/23 02:11:14;;;;;;;4.30;2.78;;;;;;;13.65;74.64;100619.19;1036750;28;20395;-78
2022/05/23 02:11:48;;;;;;;4.55;2.03;;;;;;;13.59;74.93;100618.31;1037449;28;20308;-78
2022/05/23 02:12:39;;;;;;;3.95;2.95;;;;;;;13.62;75.04;100617.00;1040126;28;20375;-78
2022/05/23 02:13:24;;;;;;;8.90;2.90;;;;;;;13.67;74.63;100619.75;1038978;28;20312;-78
2022/05/23 02:14:24;;;;;;;7.53;3.42;;;;;;;13.54;74.91;100620.91;1036168;28;20156;-77
2022/05/23 02:15:17;;;;;;;6.28;2.67;;;;;;;13.64;74.15;100620.25;1035702;28;20308;-78
2022/05/23 02:16:19;;;;;;;7.55;2.85;;;;;;;13.52;74.96;100628.34;1039761;28;20386;-78
2022/05/23 02:16:57;;;;;;;6.07;2.47;;;;;;;13.55;74.97;100621.72;1037515;28;20308;-78
2022/05/23 02:17:33;;;;;;;5.20;2.25;;;;;;;13.51;74.63;100625.94;1033388;28;20293;-77
2022/05/23 02:18:06;;;;;;;5.60;2.78;;;;;;;13.58;74.97;100623.91;1031941;28;20301;-77
2022/05/23 02:18:37;;;;;;;3.83;2.45;;;;;;;13.54;74.94;100620.09;1032452;28;20388;-77
2022/05/23 02:19:10;;;;;;;6.03;3.13;;;;;;;13.51;74.92;100621.38;1032086;28;20050;-77
2022/05/23 02:19:42;;;;;;;9.05;3.03;;;;;;;13.56;75.21;100624.16;1032072;28;20297;-78
2022/05/23 02:20:27;;;;;;;4.57;2.35;;;;;;;13.59;74.70;100622.84;1036065;28;20539;-78
2022/05/23 02:21:18;;;;;;;5.35;2.50;;;;;;;13.50;74.59;100618.94;1041913;28;20307;-78
2022/05/23 02:21:58;;;;;;;4.00;2.63;;;;;;;13.48;75.39;100621.06;1039980;28;20288;-77
2022/05/23 02:22:32;;;;;;;5.22;2.55;;;;;;;13.42;74.87;100622.84;1033485;28;20046;-79
2022/05/23 02:23:20;;;;;;;9.13;3.13;;;;;;;13.38;75.08;100620.84;1035928;28;20304;-78
2022/05/23 02:24:25;;;;;;;7.57;2.80;;;;;;;13.43;75.38;100618.28;1033573;28;20293;-77
2022/05/23 02:24:59;;;;;;;8.73;3.40;;;;;;;13.47;75.46;100614.09;1037275;28;20297;-79
2022/05/23 02:25:31;;;;;;;3.95;2.63;;;;;;;13.38;75.80;100616.31;1041010;28;20805;-77
2022/05/23 02:26:58;;;;;;;;;;;;;;;;;;;;;
2022/05/23 02:27:47;;;;;;;5.47;2.75;;;;;;;13.43;75.42;100615.63;1042495;28;20315;-77
2022/05/23 02:28:19;;;;;;;5.38;2.80;;;;;;;13.53;75.80;100613.13;1036071;28;20864;-77
2022/05/23 02:29:44;;;;;;;3.40;2.47;;;;;;;13.59;75.22;100606.78;1031590;28;20396;-77
2022/05/23 02:30:50;;;;;;;4.97;3.03;;;;;;;13.41;76.36;100609.66;1029499;28;20687;-78
2022/05/23 02:32:12;;;;;;;;;;;;;;;;;;;;;
2022/05/23 02:32:47;;;;;;;4.22;2.72;;;;;;;13.57;75.60;100609.72;1046887;28;20797;-78
2022/05/23 02:33:54;;;;;;;6.75;2.92;;;;;;;13.52;75.50;100608.81;1046555;28;20310;-78
2022/05/23 02:34:39;;;;;;;6.18;3.30;;;;;;;13.57;74.93;100603.53;1040336;28;20300;-77
2022/05/23 02:35:12;;;;;;;5.38;2.30;;;;;;;13.52;75.64;100606.13;1041743;28;20745;-77
2022/05/23 02:35:44;;;;;;;8.25;2.78;;;;;;;13.57;75.23;100608.91;1047033;28;20385;-77
2022/05/23 02:36:45;;;;;;;6.13;2.90;;;;;;;13.55;74.99;100606.47;1036547;28;20437;-78
2022/05/23 02:37:18;;;;;;;7.43;3.22;;;;;;;13.49;75.55;100606.63;1028957;28;20306;-79
2022/05/23 02:37:54;;;;;;;7.18;3.20;;;;;;;13.49;75.59;100617.31;1029109;28;20302;-79
2022/05/23 02:38:27;;;;;;;5.63;2.70;;;;;;;13.58;75.28;100613.19;1032096;28;20812;-79
2022/05/23 02:38:59;;;;;;;5.20;2.88;;;;;;;13.67;74.97;100606.38;1031026;28;20329;-77
2022/05/23 02:39:31;;;;;;;5.63;3.03;;;;;;;13.66;75.14;100607.44;1031836;28;20354;-77
2022/05/23 02:40:03;;;;;;;4.22;3.00;;;;;;;13.72;74.72;100606.50;1032617;28;20309;-77
2022/05/23 02:40:35;;;;;;;4.45;2.70;;;;;;;13.65;75.49;100610.34;1028242;28;20309;-77
2022/05/23 02:41:07;;;;;;;7.85;3.10;;;;;;;13.63;75.29;100607.13;1032517;28;20038;-77
2022/05/23 02:41:42;;;;;;;5.07;2.97;;;;;;;13.66;75.27;100602.09;1031706;28;20088;-76
2022/05/23 02:42:17;;;;;;;8.27;3.28;;;;;;;13.75;74.97;100602.53;1029049;28;20046;-77
2022/05/23 02:42:50;;;;;;;7.70;2.83;;;;;;;13.69;74.70;100601.59;1034298;28;20294;-77
2022/05/23 02:43:22;;;;;;;10.02;3.03;;;;;;;13.66;75.30;100606.63;1033025;28;20042;-77
2022/05/23 02:43:54;;;;;;;7.15;3.50;;;;;;;13.73;74.36;100601.94;1035639;28;20305;-77
2022/05/23 02:44:29;;;;;;;7.13;3.53;;;;;;;13.71;75.37;100598.72;1028091;28;20306;-76
2022/05/23 02:45:06;;;;;;;9.63;3.67;;;;;;;13.70;74.79;100597.91;1030397;28;20382;-77
2022/05/23 02:45:41;;;;;;;6.82;2.92;;;;;;;13.70;74.53;100592.53;1036203;28;20397;-76
2022/05/23 02:46:14;;;;;;;6.97;2.83;;;;;;;13.51;75.25;100599.16;1039900;28;20045;-77
2022/05/23 02:46:53;;;;;;;4.68;2.65;;;;;;;13.48;76.95;100615.69;1040369;28;20354;-77
2022/05/23 02:47:28;;;;;;;9.23;2.80;;;;;;;13.49;76.36;100602.09;1029972;28;20313;-77
2022/05/23 02:48:07;;;;;;;8.90;3.55;;;;;;;13.40;76.49;100597.34;1035070;28;20308;-77
2022/05/23 02:48:39;;;;;;;10.10;3.10;;;;;;;13.28;77.13;100603.56;1036598;28;20309;-77
2022/05/23 02:49:12;;;;;;;7.80;3.10;;;;;;;13.41;76.28;100599.78;1035566;28;20285;-76
2022/05/23 02:49:47;;;;;;;3.40;2.70;;;;;;;13.50;76.33;100602.91;1028524;28;20298;-77
2022/05/23 02:50:29;;;;;;;2.88;2.60;;;;;;;13.48;76.43;100599.66;1027860;28;20404;-77
2022/05/23 02:51:00;;;;;;;8.52;2.83;;;;;;;13.50;76.01;100593.00;1028084;28;20309;-77
2022/05/23 02:51:33;;;;;;;5.10;3.20;;;;;;;13.55;75.88;100585.06;1028215;28;20333;-77
2022/05/23 02:52:10;;;;;;;6.25;2.78;;;;;;;13.57;75.68;100584.81;1033461;28;20043;-77
2022/05/23 02:53:01;;;;;;;9.40;2.92;;;;;;;13.56;75.87;100585.88;1032125;28;20294;-76
2022/05/23 02:53:40;;;;;;;4.72;2.70;;;;;;;13.54;76.22;100590.66;1031984;28;20696;-76
2022/05/23 02:54:12;;;;;;;9.85;3.72;;;;;;;13.56;76.21;100584.00;1039263;28;20665;-77
2022/05/23 02:54:45;;;;;;;5.18;2.90;;;;;;;13.60;76.53;100587.00;1036160;28;20331;-77
2022/05/23 02:55:17;;;;;;;5.47;2.58;;;;;;;13.61;76.38;100589.44;1036471;28;20360;-76
2022/05/23 02:55:49;;;;;;;5.50;2.47;;;;;;;13.53;75.92;100576.47;1038051;28;20300;-77
2022/05/23 02:56:20;;;;;;;8.00;3.83;;;;;;;13.48;76.25;100581.72;1035954;28;20305;-76
2022/05/23 02:56:52;;;;;;;6.80;3.20;;;;;;;13.50;76.27;100586.84;1031936;28;20045;-77
2022/05/23 02:57:26;;;;;;;5.95;2.75;;;;;;;13.55;76.17;100590.41;1039680;28;20798;-77
2022/05/23 02:57:58;;;;;;;7.85;3.03;;;;;;;13.44;76.38;100582.47;1036935;28;20395;-77
2022/05/23 02:58:33;;;;;;;5.75;3.30;;;;;;;13.47;76.29;100588.13;1036427;28;20694;-77
2022/05/23 02:59:05;;;;;;;8.68;3.42;;;;;;;13.39;77.00;100585.03;1032439;28;20501;-76
2022/05/23 02:59:38;;;;;;;7.85;3.42;;;;;;;13.46;76.85;100588.38;1033547;28;20640;-77
2022/05/23 03:00:15;;;;;;;8.90;2.83;;;;;;;13.44;76.89;100579.78;1035567;28;20316;-76
2022/05/23 03:00:50;;;;;;;5.65;3.17;;;;;;;13.45;76.53;100581.41;1030031;28;20340;-77
2022/05/23 03:01:21;;;;;;;5.63;3.00;;;;;;;13.49;76.53;100577.19;1030481;28;20452;-77
2022/05/23 03:03:01;;;;;;;8.98;3.50;;;;;;;13.46;76.65;100572.31;1032882;28;20309;-76
2022/05/23 03:03:44;;;;;;;8.85;3.60;;;;;;;13.54;77.26;100572.72;1033725;28;20309;-77
2022/05/23 03:04:47;;;;;;;6.78;3.00;;;;;;;13.58;76.09;100578.41;1036456;28;20297;-77
2022/05/23 03:05:20;;;;;;;8.68;2.47;;;;;;;13.61;76.58;100569.88;1040079;28;20287;-77
2022/05/23 03:05:52;;;;;;;11.70;3.65;;;;;;;13.52;76.42;100569.50;1042642;28;20300;-77
2022/05/23 03:06:24;;;;;;;6.63;3.17;;;;;;;13.64;76.88;100569.41;1041031;28;20790;-77
2022/05/23 03:06:57;;;;;;;3.42;3.13;;;;;;;13.58;77.29;100562.34;1041723;28;20292;-77
2022/05/23 03:07:28;;;;;;;6.78;3.22;;;;;;;13.58;76.31;100562.34;1045380;28;20302;-76
2022/05/23 03:08:04;;;;;;;5.13;2.88;;;;;;;13.52;76.77;100560.66;1043289;28;20296;-77
2022/05/23 03:08:36;;;;;;;6.65;3.13;;;;;;;13.56;76.20;100559.09;1045498;28;20394;-76
2022/05/23 03:09:08;;;;;;;3.35;2.83;;;;;;;13.52;76.70;100558.78;1044759;28;20295;-77
2022/05/23 03:09:44;;;;;;;6.13;3.17;;;;;;;13.59;76.97;100561.28;1037768;28;20311;-77
2022/05/23 03:10:21;;;;;;;8.25;3.20;;;;;;;13.60;76.69;100554.88;1034837;28;20305;-77
2022/05/23 03:10:57;;;;;;;6.03;3.22;;;;;;;13.55;77.20;100552.94;1034129;28;20448;-77
2022/05/23 03:11:29;;;;;;;7.10;3.20;;;;;;;13.39;77.79;100555.59;1033442;28;20042;-77
2022/05/23 03:12:01;;;;;;;7.35;3.75;;;;;;;13.36;78.30;100556.06;1026691;28;20313;-77
2022/05/23 03:12:36;;;;;;;4.15;2.97;;;;;;;13.33;77.22;100559.25;1029792;28;20308;-77
2022/05/23 03:13:09;;;;;;;5.22;3.13;;;;;;;13.26;78.55;100560.22;1028707;28;20053;-77
2022/05/23 03:13:40;;;;;;;8.23;3.45;;;;;;;13.41;77.64;100561.50;1035159;28;20305;-77
2022/05/23 03:14:12;;;;;;;3.63;3.10;;;;;;;13.32;77.98;100560.28;1032882;28;20064;-76
2022/05/23 03:14:44;;;;;;;5.25;3.67;;;;;;;13.34;78.08;100555.50;1038881;28;20407;-77
2022/05/23 03:15:17;;;;;;;7.25;3.47;;;;;;;13.35;77.81;100551.78;1041045;28;20033;-77
2022/05/23 03:15:48;;;;;;;7.88;4.05;;;;;;;13.36;78.53;100550.72;1033702;28;20297;-77
2022/05/23 03:16:24;;;;;;;9.13;3.28;;;;;;;13.39;77.86;100550.25;1034219;28;20316;-77
2022/05/23 03:17:01;;;;;;;5.80;3.65;;;;;;;13.38;78.06;100546.75;1037392;28;20726;-77
2022/05/23 03:17:33;;;;;;;9.90;3.60;;;;;;;13.43;77.93;100549.53;1036446;28;20041;-76
2022/05/23 03:18:06;;;;;;;6.50;4.20;;;;;;;13.42;77.34;100552.44;1037646;28;20304;-77
2022/05/23 03:18:41;;;;;;;10.52;3.58;;;;;;;13.37;77.51;100539.78;1034379;28;20304;-77
2022/05/23 03:19:13;;;;;;;7.57;3.70;;;;;;;13.39;77.12;100544.88;1034072;28;20039;-76
2022/05/23 03:19:44;;;;;;;4.93;3.53;;;;;;;13.50;77.18;100538.69;1033149;28;20308;-76
2022/05/23 03:20:17;;;;;;;6.88;3.65;;;;;;;13.41;77.48;100534.75;1035436;28;20297;-77
2022/05/23 03:20:55;;;;;;;4.97;3.70;;;;;;;13.42;77.85;100544.41;1033173;28;20323;-77
2022/05/23 03:27:22;;;;;;;6.55;3.30;;;;;;;13.42;77.76;100526.53;1037670;28;20137;-77
2022/05/23 03:27:55;;;;;;;8.45;3.40;;;;;;;13.48;78.07;100524.72;1037256;28;20312;-76
2022/05/23 03:28:32;;;;;;;9.10;4.00;;;;;;;13.40;78.00;100519.75;1037327;28;20315;-76
2022/05/23 03:29:03;;;;;;;7.43;3.20;;;;;;;13.21;78.50;100514.66;1036592;28;20288;-76